sensor_id;sensor_type;location;lat;lon;timestamp;pressure;altitude;pressure_sealevel;temperature;humidity
59029;BME280;45919;51.420;5.454;2023-02-02T00:00:06;102042.34;;;8.33;77.46
59029;BME280;45919;51.420;5.454;2023-02-02T00:01:08;102033.66;;;8.32;77.10
59029;BME280;45919;51.420;5.454;2023-02-02T00:02:10;102027.56;;;8.32;77.30
59029;BME280;45919;51.420;5.454;2023-02-02T00:03:11;102030.09;;;8.30;77.30
59029;BME280;45919;51.420;5.454;2023-02-02T00:04:17;102037.22;;;8.34;77.51
59029;BME280;45919;51.420;5.454;2023-02-02T00:05:19;102037.13;;;8.33;77.37
59029;BME280;45919;51.420;5.454;2023-02-02T00:06:21;102023.19;;;8.31;77.35
59029;BME280;45919;51.420;5.454;2023-02-02T00:07:22;102024.06;;;8.31;77.33
59029;BME280;45919;51.420;5.454;2023-02-02T00:08:24;102020.78;;;8.35;77.51
59029;BME280;45919;51.420;5.454;2023-02-02T00:09:26;102028.53;;;8.34;77.72
59029;BME280;45919;51.420;5.454;2023-02-02T00:10:29;102028.47;;;8.32;77.31
59029;BME280;45919;51.420;5.454;2023-02-02T00:11:30;102025.78;;;8.31;77.64
59029;BME280;45919;51.420;5.454;2023-02-02T00:12:32;102020.66;;;8.32;77.42
59029;BME280;45919;51.420;5.454;2023-02-02T00:13:33;102025.78;;;8.31;77.36
59029;BME280;45919;51.420;5.454;2023-02-02T00:14:35;102026.66;;;8.31;77.59
59029;BME280;45919;51.420;5.454;2023-02-02T00:15:37;102021.38;;;8.30;77.28
59029;BME280;45919;51.420;5.454;2023-02-02T00:17:43;102018.84;;;8.31;77.48
59029;BME280;45919;51.420;5.454;2023-02-02T00:18:44;102031.00;;;8.31;77.50
59029;BME280;45919;51.420;5.454;2023-02-02T00:19:46;102027.44;;;8.29;77.54
59029;BME280;45919;51.420;5.454;2023-02-02T00:20:47;102021.38;;;8.30;77.46
59029;BME280;45919;51.420;5.454;2023-02-02T00:21:50;102021.44;;;8.31;77.63
59029;BME280;45919;51.420;5.454;2023-02-02T00:22:51;102018.03;;;8.32;77.45
59029;BME280;45919;51.420;5.454;2023-02-02T00:23:53;102017.97;;;8.31;77.43
59029;BME280;45919;51.420;5.454;2023-02-02T00:24:54;102017.16;;;8.32;77.45
59029;BME280;45919;51.420;5.454;2023-02-02T00:25:56;102018.03;;;8.32;77.33
59029;BME280;45919;51.420;5.454;2023-02-02T00:26:58;102015.44;;;8.32;77.21
59029;BME280;45919;51.420;5.454;2023-02-02T00:28:00;102025.13;;;8.36;77.27
59029;BME280;45919;51.420;5.454;2023-02-02T00:29:01;102024.41;;;8.39;77.30
59029;BME280;45919;51.420;5.454;2023-02-02T00:30:03;102012.28;;;8.40;77.32
59029;BME280;45919;51.420;5.454;2023-02-02T00:31:04;102021.06;;;8.42;77.11
59029;BME280;45919;51.420;5.454;2023-02-02T00:32:06;102015.13;;;8.46;76.98
59029;BME280;45919;51.420;5.454;2023-02-02T00:33:08;102018.75;;;8.49;77.02
59029;BME280;45919;51.420;5.454;2023-02-02T00:34:10;102019.66;;;8.50;77.07
59029;BME280;45919;51.420;5.454;2023-02-02T00:35:12;102017.78;;;8.47;76.98
59029;BME280;45919;51.420;5.454;2023-02-02T00:36:14;102016.97;;;8.48;76.88
59029;BME280;45919;51.420;5.454;2023-02-02T00:37:15;102027.41;;;8.48;76.83
59029;BME280;45919;51.420;5.454;2023-02-02T00:38:17;102026.63;;;8.51;76.86
59029;BME280;45919;51.420;5.454;2023-02-02T00:39:20;102014.50;;;8.52;76.77
59029;BME280;45919;51.420;5.454;2023-02-02T00:40:22;102023.16;;;8.51;76.66
59029;BME280;45919;51.420;5.454;2023-02-02T00:41:23;102020.56;;;8.51;76.83
59029;BME280;45919;51.420;5.454;2023-02-02T00:42:25;102025.88;;;8.54;76.64
59029;BME280;45919;51.420;5.454;2023-02-02T00:43:26;102025.03;;;8.55;76.63
59029;BME280;45919;51.420;5.454;2023-02-02T00:44:28;102025.94;;;8.55;76.59
59029;BME280;45919;51.420;5.454;2023-02-02T00:45:48;102036.59;;;8.60;76.53
59029;BME280;45919;51.420;5.454;2023-02-02T00:46:50;102030.63;;;8.63;76.27
59029;BME280;45919;51.420;5.454;2023-02-02T00:47:51;102031.41;;;8.60;76.29
59029;BME280;45919;51.420;5.454;2023-02-02T00:48:52;102036.59;;;8.60;76.08
59029;BME280;45919;51.420;5.454;2023-02-02T00:49:54;102043.59;;;8.61;76.13
59029;BME280;45919;51.420;5.454;2023-02-02T00:50:55;102034.31;;;8.68;76.02
59029;BME280;45919;51.420;5.454;2023-02-02T00:51:58;102038.50;;;8.64;76.00
59029;BME280;45919;51.420;5.454;2023-02-02T00:53:00;102043.03;;;8.68;76.02
59029;BME280;45919;51.420;5.454;2023-02-02T00:54:02;102042.91;;;8.65;75.75
59029;BME280;45919;51.420;5.454;2023-02-02T00:55:04;102041.09;;;8.64;75.78
59029;BME280;45919;51.420;5.454;2023-02-02T00:56:05;102030.75;;;8.66;76.04
59029;BME280;45919;51.420;5.454;2023-02-02T00:57:08;102034.59;;;8.74;75.72
59029;BME280;45919;51.420;5.454;2023-02-02T00:58:12;102035.38;;;8.73;75.47
59029;BME280;45919;51.420;5.454;2023-02-02T00:59:14;102045.69;;;8.70;75.62
59029;BME280;45919;51.420;5.454;2023-02-02T01:00:16;102035.22;;;8.68;75.78
59029;BME280;45919;51.420;5.454;2023-02-02T01:01:19;102031.69;;;8.68;75.67
59029;BME280;45919;51.420;5.454;2023-02-02T01:02:23;102040.41;;;8.68;75.81
59029;BME280;45919;51.420;5.454;2023-02-02T01:03:25;102032.72;;;8.71;75.77
59029;BME280;45919;51.420;5.454;2023-02-02T01:04:26;102036.28;;;8.73;75.66
59029;BME280;45919;51.420;5.454;2023-02-02T01:05:28;102031.91;;;8.72;75.37
59029;BME280;45919;51.420;5.454;2023-02-02T01:06:30;102044.03;;;8.72;75.36
59029;BME280;45919;51.420;5.454;2023-02-02T01:07:31;102036.22;;;8.72;75.37
59029;BME280;45919;51.420;5.454;2023-02-02T01:08:33;102030.28;;;8.75;75.35
59029;BME280;45919;51.420;5.454;2023-02-02T01:09:34;102035.53;;;8.76;75.37
59029;BME280;45919;51.420;5.454;2023-02-02T01:10:36;102029.69;;;8.82;75.06
59029;BME280;45919;51.420;5.454;2023-02-02T01:11:37;102034.00;;;8.81;74.94
59029;BME280;45919;51.420;5.454;2023-02-02T01:12:39;102034.63;;;8.76;74.91
59029;BME280;45919;51.420;5.454;2023-02-02T01:13:41;102032.94;;;8.76;75.12
59029;BME280;45919;51.420;5.454;2023-02-02T01:14:42;102040.75;;;8.76;74.96
59029;BME280;45919;51.420;5.454;2023-02-02T01:15:44;102031.34;;;8.80;75.09
59029;BME280;45919;51.420;5.454;2023-02-02T01:16:45;102029.50;;;8.77;75.01
59029;BME280;45919;51.420;5.454;2023-02-02T01:17:47;102033.81;;;8.77;75.03
59029;BME280;45919;51.420;5.454;2023-02-02T01:18:48;102041.56;;;8.75;74.93
59029;BME280;45919;51.420;5.454;2023-02-02T01:19:50;102031.97;;;8.74;75.02
59029;BME280;45919;51.420;5.454;2023-02-02T01:20:58;102035.78;;;8.82;74.97
59029;BME280;45919;51.420;5.454;2023-02-02T01:21:59;102039.00;;;8.77;74.97
59029;BME280;45919;51.420;5.454;2023-02-02T01:23:03;102034.00;;;8.81;74.77
59029;BME280;45919;51.420;5.454;2023-02-02T01:24:05;102045.19;;;8.79;74.76
59029;BME280;45919;51.420;5.454;2023-02-02T01:25:06;102031.41;;;8.81;74.64
59029;BME280;45919;51.420;5.454;2023-02-02T01:26:09;102035.59;;;8.78;74.83
59029;BME280;45919;51.420;5.454;2023-02-02T01:27:11;102042.47;;;8.76;74.87
59029;BME280;45919;51.420;5.454;2023-02-02T01:28:12;102028.59;;;8.77;74.99
59029;BME280;45919;51.420;5.454;2023-02-02T01:29:14;102041.72;;;8.78;75.19
59029;BME280;45919;51.420;5.454;2023-02-02T01:30:16;102031.28;;;8.78;75.10
59029;BME280;45919;51.420;5.454;2023-02-02T01:31:18;102031.34;;;8.80;74.95
59029;BME280;45919;51.420;5.454;2023-02-02T01:32:19;102036.63;;;8.81;75.01
59029;BME280;45919;51.420;5.454;2023-02-02T01:33:21;102048.00;;;8.83;75.01
59029;BME280;45919;51.420;5.454;2023-02-02T01:34:23;102035.78;;;8.82;74.91
59029;BME280;45919;51.420;5.454;2023-02-02T01:35:24;102044.44;;;8.81;74.94
59029;BME280;45919;51.420;5.454;2023-02-02T01:36:26;102038.38;;;8.82;74.93
59029;BME280;45919;51.420;5.454;2023-02-02T01:37:27;102037.53;;;8.82;75.04
59029;BME280;45919;51.420;5.454;2023-02-02T01:38:29;102040.03;;;8.80;74.94
59029;BME280;45919;51.420;5.454;2023-02-02T01:39:30;102030.44;;;8.79;74.92
59029;BME280;45919;51.420;5.454;2023-02-02T01:40:34;102040.94;;;8.81;74.92
59029;BME280;45919;51.420;5.454;2023-02-02T01:41:35;102033.16;;;8.82;74.99
59029;BME280;45919;51.420;5.454;2023-02-02T01:42:37;102041.88;;;8.83;74.76
59029;BME280;45919;51.420;5.454;2023-02-02T01:46:03;102039.28;;;8.83;74.74
59029;BME280;45919;51.420;5.454;2023-02-02T01:47:05;102042.56;;;8.79;75.03
59029;BME280;45919;51.420;5.454;2023-02-02T01:48:06;102037.25;;;8.76;75.00
59029;BME280;45919;51.420;5.454;2023-02-02T01:50:10;102042.47;;;8.76;75.24
59029;BME280;45919;51.420;5.454;2023-02-02T01:51:13;102045.97;;;8.76;75.24
59029;BME280;45919;51.420;5.454;2023-02-02T01:52:16;102045.97;;;8.76;75.29
59029;BME280;45919;51.420;5.454;2023-02-02T01:53:19;102046.78;;;8.75;75.07
59029;BME280;45919;51.420;5.454;2023-02-02T01:54:32;102038.94;;;8.75;75.30
59029;BME280;45919;51.420;5.454;2023-02-02T01:55:36;102027.91;;;8.81;74.92
59029;BME280;45919;51.420;5.454;2023-02-02T01:56:40;102034.75;;;8.79;74.94
59029;BME280;45919;51.420;5.454;2023-02-02T01:57:45;102030.63;;;8.84;74.92
59029;BME280;45919;51.420;5.454;2023-02-02T01:58:47;102031.34;;;8.80;74.78
59029;BME280;45919;51.420;5.454;2023-02-02T01:59:48;102037.38;;;8.79;74.95
59029;BME280;45919;51.420;5.454;2023-02-02T02:00:51;102039.91;;;8.77;74.93
59029;BME280;45919;51.420;5.454;2023-02-02T02:01:54;102038.94;;;8.75;75.06
59029;BME280;45919;51.420;5.454;2023-02-02T02:02:56;102036.34;;;8.75;74.98
59029;BME280;45919;51.420;5.454;2023-02-02T02:03:58;102035.47;;;8.75;75.12
59029;BME280;45919;51.420;5.454;2023-02-02T02:05:00;102036.63;;;8.81;74.95
59029;BME280;45919;51.420;5.454;2023-02-02T02:06:06;102025.28;;;8.81;74.92
59029;BME280;45919;51.420;5.454;2023-02-02T02:07:09;102027.84;;;8.79;75.02
59029;BME280;45919;51.420;5.454;2023-02-02T02:08:18;102028.88;;;8.83;74.59
59029;BME280;45919;51.420;5.454;2023-02-02T02:09:20;102033.94;;;8.80;74.66
59029;BME280;45919;51.420;5.454;2023-02-02T02:10:22;102031.19;;;8.77;75.15
59029;BME280;45919;51.420;5.454;2023-02-02T02:11:24;102036.50;;;8.78;74.99
59029;BME280;45919;51.420;5.454;2023-02-02T02:12:25;102031.34;;;8.80;75.02
59029;BME280;45919;51.420;5.454;2023-02-02T02:13:27;102031.19;;;8.77;75.03
59029;BME280;45919;51.420;5.454;2023-02-02T02:14:48;102028.59;;;8.77;74.96
59029;BME280;45919;51.420;5.454;2023-02-02T02:22:02;102027.84;;;8.79;75.21
59029;BME280;45919;51.420;5.454;2023-02-02T02:30:02;102035.72;;;8.81;74.97
59029;BME280;45919;51.420;5.454;2023-02-02T02:35:43;102049.53;;;8.78;74.87
59029;BME280;45919;51.420;5.454;2023-02-02T02:37:50;102036.41;;;8.77;75.00
59029;BME280;45919;51.420;5.454;2023-02-02T02:39:53;102046.78;;;8.75;74.92
59029;BME280;45919;51.420;5.454;2023-02-02T02:40:56;102047.66;;;8.76;74.88
59029;BME280;45919;51.420;5.454;2023-02-02T02:42:02;102045.00;;;8.74;74.91
59029;BME280;45919;51.420;5.454;2023-02-02T02:43:18;102047.59;;;8.74;74.91
59029;BME280;45919;51.420;5.454;2023-02-02T02:44:20;102048.41;;;8.73;75.06
59029;BME280;45919;51.420;5.454;2023-02-02T02:45:22;102046.72;;;8.73;75.07
59029;BME280;45919;51.420;5.454;2023-02-02T02:46:25;102044.94;;;8.72;74.78
59029;BME280;45919;51.420;5.454;2023-02-02T02:47:28;102044.03;;;8.72;74.84
59029;BME280;45919;51.420;5.454;2023-02-02T02:48:30;102049.31;;;8.73;75.22
59029;BME280;45919;51.420;5.454;2023-02-02T02:49:32;102042.34;;;8.72;74.84
59029;BME280;45919;51.420;5.454;2023-02-02T02:50:33;102048.28;;;8.70;74.86
59029;BME280;45919;51.420;5.454;2023-02-02T02:52:40;102048.34;;;8.71;75.03
59029;BME280;45919;51.420;5.454;2023-02-02T02:53:42;102053.50;;;8.70;75.12
59029;BME280;45919;51.420;5.454;2023-02-02T02:54:47;102048.22;;;8.68;74.99
59029;BME280;45919;51.420;5.454;2023-02-02T03:01:38;102055.31;;;8.71;75.13
59029;BME280;45919;51.420;5.454;2023-02-02T03:05:25;102064.75;;;8.69;75.13
59029;BME280;45919;51.420;5.454;2023-02-02T03:06:31;102061.31;;;8.70;74.98
59029;BME280;45919;51.420;5.454;2023-02-02T03:07:43;102059.63;;;8.70;74.84
59029;BME280;45919;51.420;5.454;2023-02-02T03:09:52;102051.53;;;8.64;75.11
59029;BME280;45919;51.420;5.454;2023-02-02T03:10:56;102037.69;;;8.65;74.97
59029;BME280;45919;51.420;5.454;2023-02-02T03:11:59;102050.09;;;8.71;74.90
59029;BME280;45919;51.420;5.454;2023-02-02T03:13:00;102045.81;;;8.73;74.71
59029;BME280;45919;51.420;5.454;2023-02-02T03:14:06;102049.06;;;8.67;74.87
59029;BME280;45919;51.420;5.454;2023-02-02T03:15:10;102046.53;;;8.69;74.61
59029;BME280;45919;51.420;5.454;2023-02-02T03:16:13;102050.16;;;8.72;74.59
59029;BME280;45919;51.420;5.454;2023-02-02T03:17:15;102052.53;;;8.68;74.68
59029;BME280;45919;51.420;5.454;2023-02-02T03:18:16;102055.88;;;8.64;74.83
59029;BME280;45919;51.420;5.454;2023-02-02T03:19:19;102044.47;;;8.61;74.84
59029;BME280;45919;51.420;5.454;2023-02-02T03:20:21;102038.44;;;8.63;74.90
59029;BME280;45919;51.420;5.454;2023-02-02T03:21:22;102044.88;;;8.71;74.70
59029;BME280;45919;51.420;5.454;2023-02-02T03:22:24;102045.63;;;8.68;74.71
59029;BME280;45919;51.420;5.454;2023-02-02T03:23:25;102048.97;;;8.66;74.95
59029;BME280;45919;51.420;5.454;2023-02-02T03:24:27;102047.16;;;8.63;74.94
59029;BME280;45919;51.420;5.454;2023-02-02T03:25:28;102044.53;;;8.63;74.86
59029;BME280;45919;51.420;5.454;2023-02-02T03:26:30;102043.66;;;8.63;74.98
59029;BME280;45919;51.420;5.454;2023-02-02T03:27:31;102047.16;;;8.63;74.92
59029;BME280;45919;51.420;5.454;2023-02-02T03:28:33;102043.66;;;8.63;74.89
59029;BME280;45919;51.420;5.454;2023-02-02T03:29:35;102041.31;;;8.69;75.14
59029;BME280;45919;51.420;5.454;2023-02-02T03:30:37;102053.50;;;8.70;74.54
59029;BME280;45919;51.420;5.454;2023-02-02T03:31:40;102050.00;;;8.69;74.64
59029;BME280;45919;51.420;5.454;2023-02-02T03:32:41;102048.97;;;8.66;75.05
59029;BME280;45919;51.420;5.454;2023-02-02T03:33:43;102046.66;;;8.72;74.71
59029;BME280;45919;51.420;5.454;2023-02-02T03:34:45;102047.28;;;8.66;74.76
59029;BME280;45919;51.420;5.454;2023-02-02T03:35:46;102048.13;;;8.65;74.93
59029;BME280;45919;51.420;5.454;2023-02-02T03:36:48;102046.31;;;8.64;74.96
59029;BME280;45919;51.420;5.454;2023-02-02T03:37:49;102049.75;;;8.63;75.03
59029;BME280;45919;51.420;5.454;2023-02-02T03:38:50;102051.59;;;8.66;75.03
59029;BME280;45919;51.420;5.454;2023-02-02T03:39:52;102042.97;;;8.67;74.95
59029;BME280;45919;51.420;5.454;2023-02-02T03:40:54;102045.69;;;8.70;75.05
59029;BME280;45919;51.420;5.454;2023-02-02T03:41:55;102033.63;;;8.72;74.64
59029;BME280;45919;51.420;5.454;2023-02-02T03:42:56;102043.94;;;8.69;74.83
59029;BME280;45919;51.420;5.454;2023-02-02T03:43:58;102038.78;;;8.70;74.79
59029;BME280;45919;51.420;5.454;2023-02-02T03:44:59;102035.16;;;8.67;74.81
59029;BME280;45919;51.420;5.454;2023-02-02T03:46:01;102043.88;;;8.67;74.91
59029;BME280;45919;51.420;5.454;2023-02-02T03:47:04;102039.50;;;8.68;74.80
59029;BME280;45919;51.420;5.454;2023-02-02T03:48:06;102041.09;;;8.64;74.91
59029;BME280;45919;51.420;5.454;2023-02-02T03:49:07;102039.41;;;8.65;74.82
59029;BME280;45919;51.420;5.454;2023-02-02T03:50:09;102044.53;;;8.63;75.17
59029;BME280;45919;51.420;5.454;2023-02-02T03:51:12;102047.22;;;8.65;74.97
59029;BME280;45919;51.420;5.454;2023-02-02T03:52:13;102051.53;;;8.64;75.03
59029;BME280;45919;51.420;5.454;2023-02-02T03:53:15;102045.34;;;8.62;74.94
59029;BME280;45919;51.420;5.454;2023-02-02T03:54:16;102051.34;;;8.59;74.99
59029;BME280;45919;51.420;5.454;2023-02-02T03:55:18;102047.78;;;8.57;75.09
59029;BME280;45919;51.420;5.454;2023-02-02T03:56:19;101976.41;;;8.12;75.19
59029;BME280;45919;51.420;5.454;2023-02-02T03:57:21;102054.97;;;8.63;75.10
59029;BME280;45919;51.420;5.454;2023-02-02T03:58:22;102064.59;;;8.66;75.05
59029;BME280;45919;51.420;5.454;2023-02-02T03:59:24;102059.34;;;8.64;74.81
59029;BME280;45919;51.420;5.454;2023-02-02T04:00:25;102063.69;;;8.64;75.17
59029;BME280;45919;51.420;5.454;2023-02-02T04:01:27;102060.19;;;8.63;75.33
59029;BME280;45919;51.420;5.454;2023-02-02T04:02:29;102061.81;;;8.61;75.09
59029;BME280;45919;51.420;5.454;2023-02-02T04:03:30;102066.19;;;8.62;75.54
59029;BME280;45919;51.420;5.454;2023-02-02T04:04:32;102067.09;;;8.63;75.18
59029;BME280;45919;51.420;5.454;2023-02-02T04:05:33;102056.72;;;8.64;75.23
59029;BME280;45919;51.420;5.454;2023-02-02T04:06:35;102072.50;;;8.67;74.95
59029;BME280;45919;51.420;5.454;2023-02-02T04:07:36;102074.16;;;8.65;74.95
59029;BME280;45919;51.420;5.454;2023-02-02T04:08:38;102069.75;;;8.64;75.09
59029;BME280;45919;51.420;5.454;2023-02-02T04:09:39;102068.94;;;8.65;75.23
59029;BME280;45919;51.420;5.454;2023-02-02T04:10:41;102061.94;;;8.64;75.09
59029;BME280;45919;51.420;5.454;2023-02-02T04:11:42;102062.00;;;8.66;74.99
59029;BME280;45919;51.420;5.454;2023-02-02T04:12:44;102064.59;;;8.66;75.16
59029;BME280;45919;51.420;5.454;2023-02-02T04:13:45;102058.38;;;8.62;75.09
59029;BME280;45919;51.420;5.454;2023-02-02T04:14:47;102075.19;;;8.69;75.04
59029;BME280;45919;51.420;5.454;2023-02-02T04:15:55;102068.13;;;8.66;75.13
59029;BME280;45919;51.420;5.454;2023-02-02T04:16:56;102063.13;;;8.71;74.95
59029;BME280;45919;51.420;5.454;2023-02-02T04:17:58;102065.72;;;8.71;74.95
59029;BME280;45919;51.420;5.454;2023-02-02T04:18:59;102072.56;;;8.69;75.08
59029;BME280;45919;51.420;5.454;2023-02-02T04:20:01;102058.59;;;8.67;75.06
59029;BME280;45919;51.420;5.454;2023-02-02T04:21:03;102055.94;;;8.65;75.04
59029;BME280;45919;51.420;5.454;2023-02-02T04:22:05;102063.75;;;8.65;74.96
59029;BME280;45919;51.420;5.454;2023-02-02T04:23:07;102061.88;;;8.63;75.10
59029;BME280;45919;51.420;5.454;2023-02-02T04:24:12;102067.31;;;8.67;75.28
59029;BME280;45919;51.420;5.454;2023-02-02T04:25:14;102063.88;;;8.68;75.05
59029;BME280;45919;51.420;5.454;2023-02-02T04:26:15;102062.91;;;8.66;75.13
59029;BME280;45919;51.420;5.454;2023-02-02T04:27:17;102070.66;;;8.65;75.16
59029;BME280;45919;51.420;5.454;2023-02-02T04:28:18;102071.69;;;8.68;75.07
59029;BME280;45919;51.420;5.454;2023-02-02T04:29:20;102072.50;;;8.67;74.95
59029;BME280;45919;51.420;5.454;2023-02-02T04:30:21;102069.00;;;8.67;75.18
59029;BME280;45919;51.420;5.454;2023-02-02T04:31:23;102072.50;;;8.67;75.14
59029;BME280;45919;51.420;5.454;2023-02-02T04:32:24;102075.94;;;8.66;75.08
59029;BME280;45919;51.420;5.454;2023-02-02T04:33:26;102079.56;;;8.70;75.09
59029;BME280;45919;51.420;5.454;2023-02-02T04:34:27;102079.00;;;8.77;74.90
59029;BME280;45919;51.420;5.454;2023-02-02T04:35:29;102081.53;;;8.76;74.81
59029;BME280;45919;51.420;5.454;2023-02-02T04:36:30;102077.91;;;8.72;74.68
59029;BME280;45919;51.420;5.454;2023-02-02T04:37:32;102079.44;;;8.67;74.75
59029;BME280;45919;51.420;5.454;2023-02-02T04:38:33;102087.25;;;8.67;74.95
59029;BME280;45919;51.420;5.454;2023-02-02T04:39:35;102087.25;;;8.67;75.07
59029;BME280;45919;51.420;5.454;2023-02-02T04:40:37;102085.44;;;8.66;75.09
59029;BME280;45919;51.420;5.454;2023-02-02T04:41:39;102086.47;;;8.69;75.05
59029;BME280;45919;51.420;5.454;2023-02-02T04:42:41;102081.19;;;8.68;75.06
59029;BME280;45919;51.420;5.454;2023-02-02T04:43:42;102091.56;;;8.66;75.15
59029;BME280;45919;51.420;5.454;2023-02-02T04:44:44;102088.16;;;8.67;75.11
59029;BME280;45919;51.420;5.454;2023-02-02T04:45:46;102084.59;;;8.65;75.10
59029;BME280;45919;51.420;5.454;2023-02-02T04:46:47;102091.50;;;8.65;75.34
59029;BME280;45919;51.420;5.454;2023-02-02T04:47:49;102082.03;;;8.67;75.36
59029;BME280;45919;51.420;5.454;2023-02-02T04:48:51;102079.31;;;8.64;75.07
59029;BME280;45919;51.420;5.454;2023-02-02T04:49:52;102080.13;;;8.63;75.28
59029;BME280;45919;51.420;5.454;2023-02-02T04:50:57;102081.00;;;8.63;75.41
59029;BME280;45919;51.420;5.454;2023-02-02T04:51:59;102083.69;;;8.65;75.32
59029;BME280;45919;51.420;5.454;2023-02-02T04:53:01;102074.91;;;8.63;75.30
59029;BME280;45919;51.420;5.454;2023-02-02T04:54:03;102085.25;;;8.61;75.19
59029;BME280;45919;51.420;5.454;2023-02-02T04:55:05;102079.22;;;8.62;75.35
59029;BME280;45919;51.420;5.454;2023-02-02T04:56:07;102092.41;;;8.65;75.27
59029;BME280;45919;51.420;5.454;2023-02-02T04:57:09;102079.38;;;8.65;75.47
59029;BME280;45919;51.420;5.454;2023-02-02T04:58:11;102082.94;;;8.67;75.43
59029;BME280;45919;51.420;5.454;2023-02-02T04:59:12;102075.03;;;8.66;75.43
59029;BME280;45919;51.420;5.454;2023-02-02T05:00:14;102075.03;;;8.66;75.22
59029;BME280;45919;51.420;5.454;2023-02-02T05:01:16;102074.16;;;8.65;75.54
59029;BME280;45919;51.420;5.454;2023-02-02T05:02:19;102074.09;;;8.64;75.29
59029;BME280;45919;51.420;5.454;2023-02-02T05:03:20;102073.19;;;8.63;75.27
59029;BME280;45919;51.420;5.454;2023-02-02T05:04:21;102078.53;;;8.66;75.41
59029;BME280;45919;51.420;5.454;2023-02-02T05:05:23;102071.56;;;8.65;75.46
59029;BME280;45919;51.420;5.454;2023-02-02T05:06:25;102074.09;;;8.64;75.53
59029;BME280;45919;51.420;5.454;2023-02-02T05:07:26;102068.16;;;8.68;75.27
59029;BME280;45919;51.420;5.454;2023-02-02T05:08:27;102064.53;;;8.64;75.44
59029;BME280;45919;51.420;5.454;2023-02-02T05:09:29;102074.16;;;8.65;75.43
59029;BME280;45919;51.420;5.454;2023-02-02T05:10:30;102061.94;;;8.64;75.37
59029;BME280;45919;51.420;5.454;2023-02-02T05:11:32;102065.31;;;8.61;75.40
59029;BME280;45919;51.420;5.454;2023-02-02T05:12:33;102063.47;;;8.59;75.53
59029;BME280;45919;51.420;5.454;2023-02-02T05:13:35;102067.88;;;8.60;75.77
59029;BME280;45919;51.420;5.454;2023-02-02T05:14:36;102070.47;;;8.60;75.50
59029;BME280;45919;51.420;5.454;2023-02-02T05:15:38;102071.50;;;8.64;75.47
59029;BME280;45919;51.420;5.454;2023-02-02T05:16:39;102067.78;;;8.58;75.59
59029;BME280;45919;51.420;5.454;2023-02-02T05:17:41;102072.91;;;8.57;75.75
59029;BME280;45919;51.420;5.454;2023-02-02T05:18:47;102072.13;;;8.58;75.57
59029;BME280;45919;51.420;5.454;2023-02-02T05:19:49;102091.06;;;8.55;75.69
59029;BME280;45919;51.420;5.454;2023-02-02T05:20:50;102084.88;;;8.53;75.68
59029;BME280;45919;51.420;5.454;2023-02-02T05:21:52;102094.50;;;8.54;75.70
59029;BME280;45919;51.420;5.454;2023-02-02T05:22:55;102092.00;;;8.56;75.94
59029;BME280;45919;51.420;5.454;2023-02-02T05:23:56;102085.84;;;8.55;75.72
59029;BME280;45919;51.420;5.454;2023-02-02T05:24:58;102098.97;;;8.57;75.69
59029;BME280;45919;51.420;5.454;2023-02-02T05:25:59;102091.22;;;8.58;75.88
59029;BME280;45919;51.420;5.454;2023-02-02T05:27:00;102093.91;;;8.60;75.75
59029;BME280;45919;51.420;5.454;2023-02-02T05:28:02;102100.88;;;8.61;75.70
59029;BME280;45919;51.420;5.454;2023-02-02T05:29:04;102100.06;;;8.62;75.82
59029;BME280;45919;51.420;5.454;2023-02-02T05:30:07;102096.56;;;8.61;75.85
59029;BME280;45919;51.420;5.454;2023-02-02T05:31:09;102092.19;;;8.60;76.05
59029;BME280;45919;51.420;5.454;2023-02-02T05:32:11;102097.31;;;8.59;75.97
59029;BME280;45919;51.420;5.454;2023-02-02T05:33:12;102101.91;;;8.65;75.65
59029;BME280;45919;51.420;5.454;2023-02-02T05:34:14;102097.66;;;8.67;75.67
59029;BME280;45919;51.420;5.454;2023-02-02T05:35:15;102094.94;;;8.64;75.78
59029;BME280;45919;51.420;5.454;2023-02-02T05:36:17;102094.94;;;8.64;75.61
59029;BME280;45919;51.420;5.454;2023-02-02T05:37:18;102096.09;;;8.70;75.60
59029;BME280;45919;51.420;5.454;2023-02-02T05:38:19;102092.47;;;8.67;75.43
59029;BME280;45919;51.420;5.454;2023-02-02T05:39:21;102100.16;;;8.64;75.61
59029;BME280;45919;51.420;5.454;2023-02-02T05:40:23;102102.66;;;8.62;75.76
59029;BME280;45919;51.420;5.454;2023-02-02T05:41:25;102107.97;;;8.64;75.86
59029;BME280;45919;51.420;5.454;2023-02-02T05:42:26;102097.16;;;8.76;75.50
59029;BME280;45919;51.420;5.454;2023-02-02T05:43:28;102110.94;;;8.73;75.66
59029;BME280;45919;51.420;5.454;2023-02-02T05:44:30;102100.63;;;8.75;75.49
59029;BME280;45919;51.420;5.454;2023-02-02T05:45:31;102102.09;;;8.69;75.61
59029;BME280;45919;51.420;5.454;2023-02-02T05:46:33;102101.06;;;8.66;75.71
59029;BME280;45919;51.420;5.454;2023-02-02T05:47:35;102091.84;;;8.72;75.84
59029;BME280;45919;51.420;5.454;2023-02-02T05:48:36;102100.41;;;8.70;75.73
59029;BME280;45919;51.420;5.454;2023-02-02T05:49:37;102091.63;;;8.68;75.81
59029;BME280;45919;51.420;5.454;2023-02-02T05:50:42;102094.03;;;8.63;75.70
59029;BME280;45919;51.420;5.454;2023-02-02T05:51:46;102100.06;;;8.62;76.05
59029;BME280;45919;51.420;5.454;2023-02-02T05:52:49;102096.66;;;8.63;75.92
59029;BME280;45919;51.420;5.454;2023-02-02T05:53:51;102101.91;;;8.65;75.94
59029;BME280;45919;51.420;5.454;2023-02-02T05:54:52;102098.56;;;8.67;76.14
59029;BME280;45919;51.420;5.454;2023-02-02T05:55:54;102101.91;;;8.65;75.96
59029;BME280;45919;51.420;5.454;2023-02-02T05:56:55;102103.63;;;8.64;75.98
59029;BME280;45919;51.420;5.454;2023-02-02T05:57:57;102100.16;;;8.64;75.96
59029;BME280;45919;51.420;5.454;2023-02-02T05:58:58;102100.06;;;8.62;76.07
59029;BME280;45919;51.420;5.454;2023-02-02T06:00:00;102095.75;;;8.63;76.13
59029;BME280;45919;51.420;5.454;2023-02-02T06:01:02;102112.41;;;8.66;76.06
59029;BME280;45919;51.420;5.454;2023-02-02T06:02:03;102103.06;;;8.71;76.19
59029;BME280;45919;51.420;5.454;2023-02-02T06:03:05;102098.81;;;8.73;75.76
59029;BME280;45919;51.420;5.454;2023-02-02T06:04:06;102100.47;;;8.71;75.63